createdAt,value
2017-08-25T00:00:03.276Z,18.03
2017-08-25T00:00:43.850Z,18.01
2017-08-25T00:01:24.491Z,18
2017-08-25T00:02:05.141Z,17.98
2017-08-25T00:02:45.710Z,17.95
2017-08-25T00:03:26.292Z,17.94
2017-08-25T00:04:06.928Z,17.98
2017-08-25T00:04:47.534Z,17.95
2017-08-25T00:05:28.148Z,17.92
2017-08-25T00:06:08.775Z,17.95
2017-08-25T00:06:49.368Z,17.92
2017-08-25T00:07:29.944Z,17.95
2017-08-25T00:08:10.565Z,18
2017-08-25T00:08:51.179Z,17.97
2017-08-25T00:09:31.760Z,17.86
2017-08-25T00:10:12.365Z,17.87
2017-08-25T00:10:52.957Z,18
2017-08-25T00:11:33.563Z,18
2017-08-25T00:12:14.140Z,17.86
2017-08-25T00:12:54.719Z,17.94
2017-08-25T00:13:35.343Z,17.86
2017-08-25T00:14:15.938Z,17.9
2017-08-25T00:14:56.520Z,17.87
2017-08-25T00:15:37.108Z,17.92
2017-08-25T00:16:17.717Z,17.89
2017-08-25T00:16:58.307Z,17.89
2017-08-25T00:17:38.882Z,17.85
2017-08-25T00:18:19.482Z,17.85
2017-08-25T00:19:00.050Z,17.92
2017-08-25T00:19:40.623Z,17.89
2017-08-25T00:20:21.195Z,17.87
2017-08-25T00:21:01.784Z,17.89
2017-08-25T00:21:42.364Z,17.83
2017-08-25T00:22:22.975Z,17.87
2017-08-25T00:23:03.567Z,17.89
2017-08-25T00:23:44.154Z,17.79
2017-08-25T00:24:24.772Z,17.79
2017-08-25T00:25:05.403Z,17.86
2017-08-25T00:25:46.023Z,17.89
2017-08-25T00:26:26.621Z,17.86
2017-08-25T00:27:07.210Z,17.83
2017-08-25T00:27:50.409Z,17.85
2017-08-25T00:28:30.975Z,17.78
2017-08-25T00:29:11.559Z,17.86
2017-08-25T00:29:52.199Z,17.86
2017-08-25T00:30:32.807Z,17.82
2017-08-25T00:31:13.387Z,17.89
2017-08-25T00:31:53.968Z,17.8
2017-08-25T00:32:34.523Z,17.85
2017-08-25T00:33:15.140Z,17.82
2017-08-25T00:33:56.131Z,17.8
2017-08-25T00:34:37.247Z,17.83
2017-08-25T00:35:18.797Z,17.9
2017-08-25T00:35:59.925Z,17.76
2017-08-25T00:36:40.672Z,17.86
2017-08-25T00:37:21.580Z,17.76
2017-08-25T00:38:03.283Z,17.76
2017-08-25T00:38:43.857Z,17.76
2017-08-25T00:39:24.454Z,17.74
2017-08-25T00:40:05.032Z,17.7
2017-08-25T00:40:45.658Z,17.72
2017-08-25T00:41:26.237Z,17.78
2017-08-25T00:42:06.822Z,17.68
2017-08-25T00:42:47.396Z,17.72
2017-08-25T00:43:27.964Z,17.72
2017-08-25T00:44:08.532Z,17.7
2017-08-25T00:44:49.099Z,17.71
2017-08-25T00:45:29.737Z,17.78
2017-08-25T00:46:10.629Z,17.68
2017-08-25T00:46:51.210Z,17.68
2017-08-25T00:47:31.798Z,17.65
2017-08-25T00:48:12.367Z,17.68
2017-08-25T00:48:52.932Z,17.76
2017-08-25T00:49:33.510Z,17.78
2017-08-25T00:50:14.095Z,17.78
2017-08-25T00:50:54.659Z,17.76
2017-08-25T00:51:35.242Z,17.71
2017-08-25T00:52:15.822Z,17.79
2017-08-25T00:52:56.395Z,17.72
2017-08-25T00:53:36.960Z,17.79
2017-08-25T00:54:17.535Z,17.78
2017-08-25T00:54:58.096Z,17.68
2017-08-25T00:55:38.670Z,17.72
2017-08-25T00:56:19.244Z,17.74
2017-08-25T00:56:59.813Z,17.78
2017-08-25T00:57:40.390Z,17.79
2017-08-25T00:58:20.955Z,17.78
2017-08-25T00:59:01.555Z,17.72
2017-08-25T00:59:42.124Z,17.72
2017-08-25T01:00:22.688Z,17.76
2017-08-25T01:01:03.254Z,17.74
2017-08-25T01:01:43.837Z,17.78
2017-08-25T01:02:24.417Z,17.8
2017-08-25T01:03:05.006Z,17.78
2017-08-25T01:03:45.599Z,17.78
2017-08-25T01:04:26.165Z,17.76
2017-08-25T01:05:06.751Z,17.76
2017-08-25T01:05:47.325Z,17.71
2017-08-25T01:06:27.914Z,17.8
2017-08-25T01:07:08.481Z,17.78
2017-08-25T01:07:49.062Z,17.76
2017-08-25T01:08:29.632Z,17.71
2017-08-25T01:09:10.225Z,17.68
2017-08-25T01:09:50.789Z,17.72
2017-08-25T01:10:31.372Z,17.72
2017-08-25T01:11:11.957Z,17.72
2017-08-25T01:11:52.531Z,17.78
2017-08-25T01:12:33.108Z,17.7
2017-08-25T01:13:13.681Z,17.72
2017-08-25T01:13:54.272Z,17.68
2017-08-25T01:14:34.834Z,17.79
2017-08-25T01:15:15.419Z,17.72
2017-08-25T01:15:56.021Z,17.78
2017-08-25T01:16:36.584Z,17.78
2017-08-25T01:17:17.147Z,17.79
2017-08-25T01:17:57.740Z,17.76
2017-08-25T01:18:38.298Z,17.71
2017-08-25T01:19:18.874Z,17.74
2017-08-25T01:19:59.441Z,17.67
2017-08-25T01:20:40.022Z,17.67
2017-08-25T01:21:20.626Z,17.68
2017-08-25T01:22:01.222Z,17.7
2017-08-25T01:22:41.792Z,17.67
2017-08-25T01:23:22.364Z,17.72
2017-08-25T01:24:02.952Z,17.74
2017-08-25T01:24:43.531Z,17.72
2017-08-25T01:25:24.096Z,17.71
2017-08-25T01:26:04.669Z,17.7
2017-08-25T01:26:45.239Z,17.76
2017-08-25T01:27:25.805Z,17.71
2017-08-25T01:28:06.385Z,17.68
2017-08-25T01:28:46.948Z,17.67
2017-08-25T01:29:27.508Z,17.79
2017-08-25T01:30:08.095Z,17.72
2017-08-25T01:30:48.656Z,17.74
2017-08-25T01:31:29.237Z,17.76
2017-08-25T01:32:09.839Z,17.72
2017-08-25T01:32:50.423Z,17.74
2017-08-25T01:33:30.995Z,17.71
2017-08-25T01:34:11.573Z,17.71
2017-08-25T01:34:52.159Z,17.76
2017-08-25T01:35:32.719Z,17.7
2017-08-25T01:36:13.295Z,17.71
2017-08-25T01:36:53.894Z,17.78
2017-08-25T01:37:34.475Z,17.86
2017-08-25T01:38:15.056Z,17.72
2017-08-25T01:38:55.647Z,17.78
2017-08-25T01:39:36.222Z,17.78
2017-08-25T01:40:16.783Z,17.8
2017-08-25T01:40:57.370Z,17.78
2017-08-25T01:41:37.936Z,17.82
2017-08-25T01:42:18.515Z,17.74
2017-08-25T01:42:59.079Z,17.9
2017-08-25T01:43:39.660Z,17.82
2017-08-25T01:44:20.239Z,17.76
2017-08-25T01:45:00.817Z,17.82
2017-08-25T01:45:41.400Z,17.82
2017-08-25T01:46:22.009Z,17.74
2017-08-25T01:47:02.585Z,17.74
2017-08-25T01:47:43.158Z,17.7
2017-08-25T01:48:23.733Z,17.74
2017-08-25T01:49:04.287Z,17.74
2017-08-25T01:49:44.860Z,17.74
2017-08-25T01:50:25.468Z,17.74
2017-08-25T01:51:06.039Z,17.72
2017-08-25T01:51:46.625Z,17.76
2017-08-25T01:52:27.218Z,17.82
2017-08-25T01:53:07.783Z,17.71
2017-08-25T01:53:48.359Z,17.79
2017-08-25T01:54:28.930Z,17.72
2017-08-25T01:55:09.495Z,17.72
2017-08-25T01:55:50.061Z,17.8
2017-08-25T01:56:30.635Z,17.72
2017-08-25T01:57:11.217Z,17.8
2017-08-25T01:57:51.771Z,17.68
2017-08-25T01:58:32.347Z,17.8
2017-08-25T01:59:12.913Z,17.72
2017-08-25T01:59:53.494Z,17.78
2017-08-25T02:00:34.068Z,17.72
2017-08-25T02:01:14.641Z,17.8
2017-08-25T02:01:55.223Z,17.72
2017-08-25T02:02:35.769Z,17.79
2017-08-25T02:03:16.404Z,17.67
2017-08-25T02:03:56.987Z,17.71
2017-08-25T02:04:37.557Z,17.72
2017-08-25T02:05:18.177Z,17.76
2017-08-25T02:05:58.755Z,17.79
2017-08-25T02:06:39.314Z,17.7
2017-08-25T02:07:19.910Z,17.7
2017-08-25T02:08:00.482Z,17.71
2017-08-25T02:08:41.106Z,17.74
2017-08-25T02:09:21.676Z,17.7
2017-08-25T02:10:02.249Z,17.67
2017-08-25T02:10:42.833Z,17.56
2017-08-25T02:11:23.403Z,17.7
2017-08-25T02:12:03.978Z,17.56
2017-08-25T02:12:44.537Z,17.56
2017-08-25T02:13:25.093Z,17.71
2017-08-25T02:14:05.680Z,17.56
2017-08-25T02:14:46.263Z,17.56
2017-08-25T02:15:26.820Z,17.63
2017-08-25T02:16:07.399Z,17.6
2017-08-25T02:16:47.964Z,17.67
2017-08-25T02:17:28.538Z,17.67
2017-08-25T02:18:09.125Z,17.57
2017-08-25T02:18:49.712Z,17.67
2017-08-25T02:19:30.307Z,17.56
2017-08-25T02:20:10.887Z,17.6
2017-08-25T02:20:51.469Z,17.56
2017-08-25T02:21:32.033Z,17.64
2017-08-25T02:22:12.609Z,17.64
2017-08-25T02:22:53.172Z,17.64
2017-08-25T02:23:33.754Z,17.63
2017-08-25T02:24:14.385Z,17.63
2017-08-25T02:24:54.951Z,17.6
2017-08-25T02:25:35.524Z,17.51
2017-08-25T02:26:16.145Z,17.54
2017-08-25T02:26:56.721Z,17.49
2017-08-25T02:27:37.322Z,17.44
2017-08-25T02:28:17.888Z,17.59
2017-08-25T02:28:58.469Z,17.45
2017-08-25T02:29:39.029Z,17.45
2017-08-25T02:30:19.614Z,17.46
2017-08-25T02:31:00.216Z,17.56
2017-08-25T02:31:40.791Z,17.54
2017-08-25T02:32:21.355Z,17.52
2017-08-25T02:33:01.916Z,17.46
2017-08-25T02:33:42.485Z,17.45
2017-08-25T02:34:23.071Z,17.45
2017-08-25T02:35:03.638Z,17.54
2017-08-25T02:35:44.225Z,17.49
2017-08-25T02:36:24.795Z,17.44
2017-08-25T02:37:05.363Z,17.42
2017-08-25T02:37:45.925Z,17.46
2017-08-25T02:38:26.557Z,17.45
2017-08-25T02:39:07.137Z,17.46
2017-08-25T02:39:47.720Z,17.44
2017-08-25T02:40:28.306Z,17.39
2017-08-25T02:41:08.916Z,17.48
2017-08-25T02:41:49.537Z,17.44
2017-08-25T02:42:30.114Z,17.48
2017-08-25T02:43:10.747Z,17.44
2017-08-25T02:43:51.355Z,17.48
2017-08-25T02:44:31.927Z,17.48
2017-08-25T02:45:12.486Z,17.41
2017-08-25T02:45:53.051Z,17.51
2017-08-25T02:46:33.613Z,17.41
2017-08-25T02:47:14.182Z,17.38
2017-08-25T02:47:54.746Z,17.45
2017-08-25T02:48:35.320Z,17.42
2017-08-25T02:49:15.904Z,17.49
2017-08-25T02:49:56.480Z,17.44
2017-08-25T02:50:37.090Z,17.39
2017-08-25T02:51:17.658Z,17.39
2017-08-25T02:51:58.227Z,17.44
2017-08-25T02:52:38.806Z,17.39
2017-08-25T02:53:19.374Z,17.38
2017-08-25T02:53:59.942Z,17.36
2017-08-25T02:54:40.526Z,17.38
2017-08-25T02:55:21.105Z,17.34
2017-08-25T02:56:01.698Z,17.39
2017-08-25T02:56:42.263Z,17.36
2017-08-25T02:57:22.850Z,17.39
2017-08-25T02:58:03.427Z,17.33
2017-08-25T02:58:43.992Z,17.41
2017-08-25T02:59:24.565Z,17.38
2017-08-25T03:00:05.172Z,17.36
2017-08-25T03:00:45.754Z,17.34
2017-08-25T03:01:26.321Z,17.36
2017-08-25T03:02:06.905Z,17.33
2017-08-25T03:02:47.473Z,17.3
2017-08-25T03:03:28.037Z,17.38
2017-08-25T03:04:08.622Z,17.33
2017-08-25T03:04:49.192Z,17.36
2017-08-25T03:05:29.764Z,17.33
2017-08-25T03:06:10.329Z,17.33
2017-08-25T03:06:50.924Z,17.36
2017-08-25T03:07:31.500Z,17.33
2017-08-25T03:08:12.096Z,17.24
2017-08-25T03:08:52.683Z,17.34
2017-08-25T03:09:33.257Z,17.27
2017-08-25T03:10:13.821Z,17.26
2017-08-25T03:10:54.396Z,17.29
2017-08-25T03:11:35.002Z,17.26
2017-08-25T03:12:15.582Z,17.3
2017-08-25T03:12:56.174Z,17.27
2017-08-25T03:13:36.752Z,17.2
2017-08-25T03:14:17.352Z,17.2
2017-08-25T03:14:57.941Z,17.19
2017-08-25T03:15:38.514Z,17.16
2017-08-25T03:16:19.081Z,17.22
2017-08-25T03:16:59.644Z,17.2
2017-08-25T03:17:40.400Z,17.2
2017-08-25T03:18:21.021Z,17.29
2017-08-25T03:19:01.627Z,17.24
2017-08-25T03:19:42.215Z,17.26
2017-08-25T03:20:22.788Z,17.29
2017-08-25T03:21:03.403Z,17.33
2017-08-25T03:21:43.983Z,17.2
2017-08-25T03:22:24.560Z,17.23
2017-08-25T03:23:05.166Z,17.29
2017-08-25T03:23:45.766Z,17.16
2017-08-25T03:24:26.369Z,17.19
2017-08-25T03:25:06.946Z,17.23
2017-08-25T03:25:47.529Z,17.16
2017-08-25T03:26:28.101Z,17.19
2017-08-25T03:27:08.688Z,17.19
2017-08-25T03:27:49.258Z,17.22
2017-08-25T03:28:29.821Z,17.2
2017-08-25T03:29:10.387Z,17.23
2017-08-25T03:29:50.940Z,17.26
2017-08-25T03:30:31.519Z,17.29
2017-08-25T03:31:12.091Z,17.33
2017-08-25T03:31:52.707Z,17.29
2017-08-25T03:32:33.272Z,17.3
2017-08-25T03:33:13.863Z,17.26
2017-08-25T03:33:54.442Z,17.22
2017-08-25T03:34:35.010Z,17.26
2017-08-25T03:35:15.587Z,17.23
2017-08-25T03:35:56.171Z,17.19
2017-08-25T03:36:36.744Z,17.2
2017-08-25T03:37:17.322Z,17.27
2017-08-25T03:37:57.962Z,17.27
2017-08-25T03:38:38.563Z,17.22
2017-08-25T03:39:19.138Z,17.22
2017-08-25T03:39:59.713Z,17.23
2017-08-25T03:40:40.313Z,17.2
2017-08-25T03:41:20.883Z,17.27
2017-08-25T03:42:01.455Z,17.22
2017-08-25T03:42:42.033Z,17.2
2017-08-25T03:43:22.602Z,17.22
2017-08-25T03:44:03.220Z,17.26
2017-08-25T03:44:43.791Z,17.22
2017-08-25T03:45:24.370Z,17.24
2017-08-25T03:46:04.942Z,17.24
2017-08-25T03:46:45.510Z,17.24
2017-08-25T03:47:26.078Z,17.24
2017-08-25T03:48:06.715Z,17.22
2017-08-25T03:48:47.286Z,17.22
2017-08-25T03:49:27.873Z,17.16
2017-08-25T03:50:08.437Z,17.23
2017-08-25T03:50:49.028Z,17.26
2017-08-25T03:51:29.615Z,17.22
2017-08-25T03:52:10.193Z,17.27
2017-08-25T03:52:50.790Z,17.2
2017-08-25T03:53:31.389Z,17.27
2017-08-25T03:54:11.972Z,17.22
2017-08-25T03:54:52.535Z,17.22
2017-08-25T03:55:33.117Z,17.2
2017-08-25T03:56:13.683Z,17.23
2017-08-25T03:56:54.252Z,17.2
2017-08-25T03:57:34.832Z,17.22
2017-08-25T03:58:15.432Z,17.23
2017-08-25T03:58:56.009Z,17.24
2017-08-25T03:59:36.575Z,17.2
2017-08-25T04:00:17.157Z,17.26
2017-08-25T04:00:57.733Z,17.27
2017-08-25T04:01:38.334Z,17.2
2017-08-25T04:02:18.916Z,17.2
2017-08-25T04:02:59.467Z,17.22
2017-08-25T04:03:40.031Z,17.23
2017-08-25T04:04:20.609Z,17.12
2017-08-25T04:05:01.191Z,17.2
2017-08-25T04:05:41.807Z,17.24
2017-08-25T04:06:22.376Z,17.26
2017-08-25T04:07:02.993Z,17.2
2017-08-25T04:07:43.556Z,17.27
2017-08-25T04:08:24.156Z,17.16
2017-08-25T04:09:04.785Z,17.26
2017-08-25T04:09:45.355Z,17.24
2017-08-25T04:10:25.934Z,17.23
2017-08-25T04:11:06.544Z,17.27
2017-08-25T04:11:47.110Z,17.24
2017-08-25T04:12:27.689Z,17.22
2017-08-25T04:13:08.265Z,17.22
2017-08-25T04:13:48.846Z,17.2
2017-08-25T04:14:29.422Z,17.26
2017-08-25T04:15:10.003Z,17.19
2017-08-25T04:15:50.574Z,17.14
2017-08-25T04:16:31.139Z,17.26
2017-08-25T04:17:11.714Z,17.22
2017-08-25T04:17:52.267Z,17.27
2017-08-25T04:18:32.844Z,17.2
2017-08-25T04:19:13.400Z,17.22
2017-08-25T04:19:53.992Z,17.22
2017-08-25T04:20:34.564Z,17.22
2017-08-25T04:21:15.129Z,17.2
2017-08-25T04:21:55.700Z,17.24
2017-08-25T04:22:36.273Z,17.2
2017-08-25T04:23:16.853Z,17.2
2017-08-25T04:23:57.446Z,17.23
2017-08-25T04:24:38.026Z,17.23
2017-08-25T04:25:18.610Z,17.22
2017-08-25T04:25:59.179Z,17.15
2017-08-25T04:26:39.754Z,17.24
2017-08-25T04:27:20.324Z,17.16
2017-08-25T04:28:00.919Z,17.3
2017-08-25T04:28:41.502Z,17.2
2017-08-25T04:29:22.096Z,17.33
2017-08-25T04:30:02.656Z,17.29
2017-08-25T04:30:43.297Z,17.26
2017-08-25T04:31:23.863Z,17.24
2017-08-25T04:32:04.428Z,17.24
2017-08-25T04:32:44.998Z,17.23
2017-08-25T04:33:25.581Z,17.27
2017-08-25T04:34:06.152Z,17.3
2017-08-25T04:34:46.734Z,17.26
2017-08-25T04:35:27.322Z,17.26
2017-08-25T04:36:07.872Z,17.33
2017-08-25T04:36:48.463Z,17.3
2017-08-25T04:37:29.049Z,17.34
2017-08-25T04:38:09.641Z,17.42
2017-08-25T04:38:50.230Z,17.33
2017-08-25T04:39:30.821Z,17.39
2017-08-25T04:40:11.419Z,17.39
2017-08-25T04:40:52.039Z,17.34
2017-08-25T04:41:32.631Z,17.39
2017-08-25T04:42:13.211Z,17.33
2017-08-25T04:42:53.776Z,17.38
2017-08-25T04:43:34.352Z,17.33
2017-08-25T04:44:14.937Z,17.36
2017-08-25T04:44:55.503Z,17.36
2017-08-25T04:45:36.084Z,17.41
2017-08-25T04:46:16.681Z,17.34
2017-08-25T04:46:57.244Z,17.31
2017-08-25T04:47:37.818Z,17.34
2017-08-25T04:48:18.401Z,17.36
2017-08-25T04:48:58.996Z,17.36
2017-08-25T04:49:39.570Z,17.3
2017-08-25T04:50:20.143Z,17.36
2017-08-25T04:51:00.731Z,17.38
2017-08-25T04:51:41.300Z,17.38
2017-08-25T04:52:21.873Z,17.33
2017-08-25T04:53:02.449Z,17.34
2017-08-25T04:53:43.038Z,17.34
2017-08-25T04:54:23.622Z,17.3
2017-08-25T04:55:04.203Z,17.39
2017-08-25T04:55:44.765Z,17.31
2017-08-25T04:56:25.355Z,17.38
2017-08-25T04:57:05.951Z,17.31
2017-08-25T04:57:46.522Z,17.26
2017-08-25T04:58:27.091Z,17.31
2017-08-25T04:59:07.668Z,17.36
2017-08-25T04:59:48.257Z,17.33
2017-08-25T05:00:28.874Z,17.34
2017-08-25T05:01:09.465Z,17.29
2017-08-25T05:01:50.032Z,17.33
2017-08-25T05:02:30.606Z,17.33
2017-08-25T05:03:11.167Z,17.31
2017-08-25T05:03:51.744Z,17.31
2017-08-25T05:04:32.295Z,17.36
2017-08-25T05:05:12.885Z,17.3
2017-08-25T05:05:53.481Z,17.33
2017-08-25T05:06:34.036Z,17.31
2017-08-25T05:07:14.617Z,17.34
2017-08-25T05:07:55.191Z,17.31
2017-08-25T05:08:35.773Z,17.42
2017-08-25T05:09:16.368Z,17.38
2017-08-25T05:09:56.946Z,17.39
2017-08-25T05:10:37.517Z,17.34
2017-08-25T05:11:18.090Z,17.39
2017-08-25T05:11:58.672Z,17.36
2017-08-25T05:12:39.246Z,17.39
2017-08-25T05:13:19.824Z,17.38
2017-08-25T05:14:00.396Z,17.39
2017-08-25T05:14:40.963Z,17.41
2017-08-25T05:15:21.532Z,17.39
2017-08-25T05:16:02.100Z,17.42
2017-08-25T05:16:42.670Z,17.38
2017-08-25T05:17:23.245Z,17.41
2017-08-25T05:18:03.842Z,17.39
2017-08-25T05:18:44.413Z,17.39
2017-08-25T05:19:24.998Z,17.44
2017-08-25T05:20:05.574Z,17.45
2017-08-25T05:20:46.145Z,17.38
2017-08-25T05:21:26.751Z,17.46
2017-08-25T05:22:07.337Z,17.41
2017-08-25T05:22:47.916Z,17.39
2017-08-25T05:23:28.509Z,17.48
2017-08-25T05:24:09.096Z,17.45
2017-08-25T05:24:49.673Z,17.49
2017-08-25T05:25:30.251Z,17.46
2017-08-25T05:26:10.814Z,17.51
2017-08-25T05:26:51.399Z,17.44
2017-08-25T05:27:31.973Z,17.44
2017-08-25T05:28:12.551Z,17.46
2017-08-25T05:28:53.137Z,17.56
2017-08-25T05:29:33.708Z,17.59
2017-08-25T05:30:14.300Z,17.49
2017-08-25T05:30:54.873Z,17.48
2017-08-25T05:31:35.438Z,17.54
2017-08-25T05:32:15.999Z,17.54
2017-08-25T05:32:56.567Z,17.52
2017-08-25T05:33:37.138Z,17.57
2017-08-25T05:34:17.703Z,17.52
2017-08-25T05:34:58.285Z,17.54
2017-08-25T05:35:38.873Z,17.57
2017-08-25T05:36:19.463Z,17.64
2017-08-25T05:37:00.054Z,17.64
2017-08-25T05:37:40.620Z,17.64
2017-08-25T05:38:21.193Z,17.68
2017-08-25T05:39:01.786Z,17.64
2017-08-25T05:39:42.354Z,17.59
2017-08-25T05:40:22.910Z,17.56
2017-08-25T05:41:03.480Z,17.7
2017-08-25T05:41:44.094Z,17.71
2017-08-25T05:42:24.658Z,17.7
2017-08-25T05:43:05.230Z,17.7
2017-08-25T05:43:45.798Z,17.7
2017-08-25T05:44:26.410Z,17.76
2017-08-25T05:45:07.002Z,17.65
2017-08-25T05:45:47.575Z,17.71
2017-08-25T05:46:28.141Z,17.71
2017-08-25T05:47:08.711Z,17.74
2017-08-25T05:47:49.317Z,17.72
2017-08-25T05:48:29.894Z,17.72
2017-08-25T05:49:10.471Z,17.82
2017-08-25T05:49:51.060Z,17.74
2017-08-25T05:50:31.635Z,17.86
2017-08-25T05:51:12.198Z,17.78
2017-08-25T05:51:52.798Z,17.87
2017-08-25T05:52:33.351Z,17.82
2017-08-25T05:53:13.965Z,17.83
2017-08-25T05:53:54.542Z,17.83
2017-08-25T05:54:35.115Z,17.92
2017-08-25T05:55:15.690Z,18.03
2017-08-25T05:55:56.274Z,17.92
2017-08-25T05:56:36.865Z,17.9
2017-08-25T05:57:17.450Z,17.94
2017-08-25T05:57:58.011Z,17.97
2017-08-25T05:58:38.582Z,17.97
2017-08-25T05:59:19.180Z,17.95
2017-08-25T05:59:59.763Z,17.95
2017-08-25T06:00:40.337Z,17.98
2017-08-25T06:01:20.910Z,17.97
2017-08-25T06:02:01.493Z,17.98
2017-08-25T06:02:42.110Z,18
2017-08-25T06:03:22.695Z,18.04
2017-08-25T06:04:03.276Z,18
2017-08-25T06:04:43.895Z,18.04
2017-08-25T06:05:24.511Z,18.01
2017-08-25T06:06:05.092Z,18.13
2017-08-25T06:06:45.675Z,18.08
2017-08-25T06:07:26.273Z,18.1
2017-08-25T06:08:06.837Z,18.16
2017-08-25T06:08:47.472Z,18.15
2017-08-25T06:09:28.047Z,18.23
2017-08-25T06:10:08.626Z,18.16
2017-08-25T06:10:49.250Z,18.16
2017-08-25T06:11:29.822Z,18.31
2017-08-25T06:12:10.392Z,18.28
2017-08-25T06:12:50.971Z,18.28
2017-08-25T06:13:31.588Z,18.26
2017-08-25T06:14:12.159Z,18.26
2017-08-25T06:14:52.741Z,18.26
2017-08-25T06:15:33.308Z,18.31
2017-08-25T06:16:13.999Z,18.4
2017-08-25T06:16:54.579Z,18.35
2017-08-25T06:17:35.147Z,18.44
2017-08-25T06:18:15.716Z,18.45
2017-08-25T06:18:56.335Z,18.34
2017-08-25T06:19:36.912Z,18.41
2017-08-25T06:20:17.498Z,18.34
2017-08-25T06:20:58.072Z,18.41
2017-08-25T06:21:38.646Z,18.38
2017-08-25T06:22:19.229Z,18.45
2017-08-25T06:22:59.808Z,18.43
2017-08-25T06:23:40.386Z,18.4
2017-08-25T06:24:20.953Z,18.44
2017-08-25T06:25:01.565Z,18.44
2017-08-25T06:25:42.154Z,18.43
2017-08-25T06:26:22.712Z,18.49
2017-08-25T06:27:03.300Z,18.58
2017-08-25T06:27:43.965Z,18.55
2017-08-25T06:28:24.521Z,18.65
2017-08-25T06:29:05.108Z,18.68
2017-08-25T06:29:45.691Z,18.84
2017-08-25T06:30:26.293Z,18.86
2017-08-25T06:31:07.000Z,18.93
2017-08-25T06:31:47.609Z,19.02
2017-08-25T06:32:28.202Z,19.07
2017-08-25T06:33:08.824Z,19.08
2017-08-25T06:33:49.399Z,19.18
2017-08-25T06:34:29.972Z,19.21
2017-08-25T06:35:10.548Z,19.24
2017-08-25T06:35:51.132Z,19.29
2017-08-25T06:36:31.709Z,19.37
2017-08-25T06:37:12.330Z,19.36
2017-08-25T06:37:52.929Z,19.37
2017-08-25T06:38:33.560Z,19.39
2017-08-25T06:39:14.172Z,19.36
2017-08-25T06:39:54.768Z,19.26
2017-08-25T06:40:35.363Z,19.29
2017-08-25T06:41:15.947Z,19.33
2017-08-25T06:41:56.533Z,19.3
2017-08-25T06:42:37.105Z,19.29
2017-08-25T06:43:17.696Z,19.29
2017-08-25T06:43:58.265Z,19.19
2017-08-25T06:44:38.841Z,19.18
2017-08-25T06:45:19.417Z,19.24
2017-08-25T06:46:00.005Z,19.14
2017-08-25T06:46:40.597Z,19.31
2017-08-25T06:47:21.221Z,19.39
2017-08-25T06:48:01.828Z,19.34
2017-08-25T06:48:42.385Z,19.36
2017-08-25T06:49:22.973Z,19.33
2017-08-25T06:50:03.617Z,19.31
2017-08-25T06:50:44.255Z,19.4
2017-08-25T06:51:24.822Z,19.29
2017-08-25T06:52:05.426Z,19.3
2017-08-25T06:52:46.083Z,19.33
2017-08-25T06:53:26.698Z,19.31
2017-08-25T06:54:07.274Z,19.16
2017-08-25T06:54:47.857Z,19.26
2017-08-25T06:55:28.437Z,19.29
2017-08-25T06:56:09.021Z,19.24
2017-08-25T06:56:49.603Z,19.24
2017-08-25T06:57:30.183Z,19.21
2017-08-25T06:58:10.821Z,19.29
2017-08-25T06:58:51.418Z,19.19
2017-08-25T06:59:32.018Z,19.3
2017-08-25T07:00:12.607Z,19.22
2017-08-25T07:00:53.194Z,19.26
2017-08-25T07:01:33.778Z,19.31
2017-08-25T07:02:14.355Z,19.31
2017-08-25T07:02:54.954Z,19.27
2017-08-25T07:03:35.546Z,19.29
2017-08-25T07:04:16.105Z,19.31
2017-08-25T07:04:56.664Z,19.26
2017-08-25T07:05:37.243Z,19.33
2017-08-25T07:06:17.812Z,19.33
2017-08-25T07:06:58.384Z,19.31
2017-08-25T07:07:38.945Z,19.36
2017-08-25T07:08:19.524Z,19.41
2017-08-25T07:09:00.096Z,19.41
2017-08-25T07:09:40.701Z,19.39
2017-08-25T07:10:21.263Z,19.41
2017-08-25T07:11:01.825Z,19.36
2017-08-25T07:11:42.427Z,19.45
2017-08-25T07:12:23.009Z,19.4
2017-08-25T07:13:03.661Z,19.49
2017-08-25T07:13:44.257Z,19.48
2017-08-25T07:14:24.843Z,19.47
2017-08-25T07:15:05.413Z,19.45
2017-08-25T07:15:45.976Z,19.63
2017-08-25T07:16:26.544Z,19.51
2017-08-25T07:17:07.147Z,19.59
2017-08-25T07:17:47.706Z,19.66
2017-08-25T07:18:28.286Z,19.76
2017-08-25T07:19:08.878Z,19.7
2017-08-25T07:19:49.488Z,19.81
2017-08-25T07:20:30.073Z,19.92
2017-08-25T07:21:10.664Z,19.95
2017-08-25T07:21:51.226Z,20
2017-08-25T07:22:31.823Z,20.04
2017-08-25T07:23:12.754Z,20.1
2017-08-25T07:23:53.318Z,20.11
2017-08-25T07:24:33.921Z,20.13
2017-08-25T07:25:14.488Z,20.19
2017-08-25T07:25:55.054Z,20.19
2017-08-25T07:26:35.627Z,20.24
2017-08-25T07:27:16.205Z,20.14
2017-08-25T07:27:56.769Z,20.13
2017-08-25T07:28:37.421Z,20.11
2017-08-25T07:29:17.990Z,20.07
2017-08-25T07:29:58.600Z,20.11
2017-08-25T07:30:39.182Z,20.13
2017-08-25T07:31:19.773Z,20.13
2017-08-25T07:32:00.363Z,20.03
2017-08-25T07:32:40.938Z,20.04
2017-08-25T07:33:21.525Z,20.04
2017-08-25T07:34:02.195Z,20.06
2017-08-25T07:34:42.769Z,20.06
2017-08-25T07:35:23.387Z,20.02
2017-08-25T07:36:04.056Z,20.07
2017-08-25T07:36:44.625Z,20.06
2017-08-25T07:37:25.239Z,20.1
2017-08-25T07:38:05.836Z,20.13
2017-08-25T07:38:46.532Z,20.22
2017-08-25T07:39:27.172Z,20.24
2017-08-25T07:40:07.752Z,20.31
2017-08-25T07:40:48.323Z,20.41
2017-08-25T07:41:28.887Z,20.48
2017-08-25T07:42:09.497Z,20.59
2017-08-25T07:42:50.086Z,20.77
2017-08-25T07:43:30.655Z,20.81
2017-08-25T07:44:11.260Z,20.96
2017-08-25T07:44:51.874Z,21
2017-08-25T07:45:32.464Z,21.09
2017-08-25T07:46:13.114Z,21.2
2017-08-25T07:46:53.777Z,21.35
2017-08-25T07:47:34.384Z,21.36
2017-08-25T07:48:14.969Z,21.45
2017-08-25T07:48:55.537Z,21.51
2017-08-25T07:49:36.176Z,21.67
2017-08-25T07:50:16.803Z,21.77
2017-08-25T07:50:57.377Z,21.77
2017-08-25T07:51:38.051Z,21.8
2017-08-25T07:52:18.663Z,21.89
2017-08-25T07:52:59.267Z,21.95
2017-08-25T07:53:39.864Z,22.06
2017-08-25T07:54:20.443Z,22.04
2017-08-25T07:55:01.082Z,22.14
2017-08-25T07:55:41.686Z,22.17
2017-08-25T07:56:22.283Z,22.22
2017-08-25T07:57:02.864Z,22.23
2017-08-25T07:57:43.460Z,22.35
2017-08-25T07:58:24.191Z,22.47
2017-08-25T07:59:04.777Z,22.47
2017-08-25T07:59:45.348Z,22.6
2017-08-25T08:00:25.962Z,22.66
2017-08-25T08:01:06.544Z,22.7
2017-08-25T08:01:47.147Z,22.85
2017-08-25T08:02:27.729Z,22.93
2017-08-25T08:03:08.385Z,22.96
2017-08-25T08:03:48.972Z,23.03
2017-08-25T08:04:29.574Z,23.09
2017-08-25T08:05:10.170Z,23.13
2017-08-25T08:05:50.776Z,23.06
2017-08-25T08:06:31.381Z,23.08
2017-08-25T08:07:11.987Z,23.08
2017-08-25T08:07:52.573Z,23.12
2017-08-25T08:08:33.188Z,23.24
2017-08-25T08:09:13.809Z,23.18
2017-08-25T08:09:54.386Z,23.23
2017-08-25T08:10:34.971Z,23.12
2017-08-25T08:11:15.592Z,23.09
2017-08-25T08:11:56.207Z,23.17
2017-08-25T08:12:36.797Z,23.09
2017-08-25T08:13:17.402Z,23.1
2017-08-25T08:13:57.998Z,23.2
2017-08-25T08:14:38.601Z,23.15
2017-08-25T08:15:19.224Z,23.18
2017-08-25T08:15:59.822Z,23.15
2017-08-25T08:16:40.444Z,23.21
2017-08-25T08:17:21.092Z,23.18
2017-08-25T08:18:01.674Z,23.23
2017-08-25T08:18:42.266Z,23.15
2017-08-25T08:19:22.866Z,23.13
2017-08-25T08:20:03.498Z,23.13
2017-08-25T08:20:44.082Z,23.15
2017-08-25T08:21:24.717Z,23.15
2017-08-25T08:22:05.323Z,23.06
2017-08-25T08:22:45.933Z,23.08
2017-08-25T08:23:26.545Z,23.03
2017-08-25T08:24:07.138Z,22.91
2017-08-25T08:24:47.731Z,22.88
2017-08-25T08:25:28.329Z,22.85
2017-08-25T08:26:08.932Z,22.83
2017-08-25T08:26:49.541Z,22.84
2017-08-25T08:27:30.136Z,22.76
2017-08-25T08:28:10.763Z,22.87
2017-08-25T08:28:51.352Z,22.91
2017-08-25T08:29:31.946Z,22.88
2017-08-25T08:30:12.574Z,22.88
2017-08-25T08:30:53.182Z,22.85
2017-08-25T08:31:33.793Z,22.9
2017-08-25T08:32:14.397Z,22.88
2017-08-25T08:32:54.979Z,22.87
2017-08-25T08:33:35.575Z,22.78
2017-08-25T08:34:16.166Z,22.78
2017-08-25T08:34:56.786Z,22.75
2017-08-25T08:35:37.363Z,22.78
2017-08-25T08:36:17.952Z,22.81
2017-08-25T08:36:58.530Z,22.93
2017-08-25T08:37:39.111Z,22.96
2017-08-25T08:38:19.677Z,22.96
2017-08-25T08:39:00.257Z,23.08
2017-08-25T08:39:40.871Z,23.06
2017-08-25T08:40:21.466Z,23.13
2017-08-25T08:41:02.085Z,23.2
2017-08-25T08:41:42.680Z,23.18
2017-08-25T08:42:23.251Z,23.27
2017-08-25T08:43:03.822Z,23.31
2017-08-25T08:43:44.398Z,23.39
2017-08-25T08:44:24.991Z,23.43
2017-08-25T08:45:05.565Z,23.41